fb tw yt g+
Meteorologia

Imagen Satelital Infraroja

Smiley face

Imagen Satelital Topes Nubosos

Smiley face

Imagen Satelital Visible

Smiley face

METAR

SAAC 142100Z 02004KT CAVOK 17/10 Q1017 =
SAAG 142100Z 23002KT CAVOK 18/05 Q1016 =
SAAJ 142100Z 27002KT CAVOK 17/03 Q1015 =
SAAP 142100Z 00000KT CAVOK 20/06 Q1016 =
SAAR 142100Z 09005KT CAVOK 17/05 Q1016 =
SAAV 141700Z 36004KT CAVOK 19/05 Q1016 =
SABE 142100Z 28005KT CAVOK 18/M01 Q1015 =
SACE 111300Z 18007KT 2000-DZ OVC008 12/11 Q1009 =
SACO 142100Z 13006KT CAVOK 23/00 Q1012 =
SADM 142100Z 27004KT CAVOK 16/06 Q1015 =
SADP 142100Z 32007KT CAVOK 16/02 Q1016 =
SAEZ 142100Z 28004KT CAVOK 15/02 Q1015 =
SAME 142100Z 18002KT CAVOK 22/M04 Q1012 =
SAMM 142100Z 18016KT CAVOK 13/M19 Q1015 =
SAMR 142000Z 27003KT CAVOK 20/M04 Q1013 =
SANC 142100Z 23006KT 9999 HZ NSC 25/01 Q1011 =
SANE 142100Z 36006KT CAVOK 25/07 Q1012 =
SANR 142100Z 18006KT CAVOK 23/09 Q1012 =
SANL 142100Z 00000KT CAVOK 25/08 Q1011 =
SANT 142100Z 02004KT 8000 NSC 24/09 Q1013 =
SANU 142100Z 20018KT CAVOK 22/M07 Q1012 =
SAOC 142100Z 09014KT CAVOK 17/M00 Q1014 =
SAOR 142100Z 27015KT CAVOK 18/M04 Q1015 =
SAOS 142100Z 00000KT CAVOK 22/M05 Q1013 =
SAOU 142100Z 18006KT CAVOK 20/M06 Q1013 =
SARC 142100Z 09007KT CAVOK 20/09 Q1016 =
SARE 142100Z 10008KT CAVOK 20/09 Q1015 =
SARF 142100Z 11005KT CAVOK 20/14 Q1015 =
SARI 142100Z 00000KT CAVOK 19/14 Q1018 =
SARL 142100Z 07004KT 8000 NSC 18/11 Q1017 =
SARP 142100Z 09003KT CAVOK 19/12 Q1018 =
SASA 142100Z 05008KT CAVOK 20/04 Q1014 =
SASJ 142100Z 09005KT CAVOK 21/08 Q1014 =
SAST 142100Z 09005KT CAVOK 22/10 Q1012 =
SATR 142100Z 05011KT CAVOK 20/07 Q1015 =
SAVC 142100Z 27018G32KT 240V310 9999 FEW035 10/M04 Q1001 =
SAVE 142100Z 29026G40KT 9999 FEW030 05/M04 Q1004 =
SAVT 142100Z 25010KT 9999 FEW035 10/M01 Q1005 =
SAVV 142100Z 29010KT 9999 BKN032 SCT100 14/00 Q1006 RESHRA =
SAVY 142100Z 00000KT 9999 SCT030 09/03 Q1005 =
SAWC 142100Z 23018KT 9999 FEW030 06/M05 Q0992 =
SAWD 151500Z 36019KT CAVOK 17/06 Q1020 =
SAWE 142100Z 27019KT CAVOK 03/00 Q0982 =
SAWG 142100Z 27021KT 9999 FEW030 FEW070 05/M03 Q0989 =
SAWH 142100Z 23019KT 9999 VCSH SCT012 BKN025 02/M01 Q0980 =
SAWJ 142100Z 27016KT 9999 SCT025 08/M08 Q0994 =
SAWP 141800Z 29020G32KT 9999 FEW027 07/M08 Q0999 =
SAWU 141800Z 27030KT 9999 FEW045 08/01 Q0991 =
SAZA 142100Z 25009G24KT CAVOK 15/10 Q1013 =
SAZB 142100Z 27016KT CAVOK 15/00 Q1011 =
SAZG 141800Z 34014KT 9999 FEW050 BKN060 16/00 Q1014 =
SAZM 142100Z 27006KT CAVOK 14/03 Q1011 =
SAZN 142100Z 27017KT 9999 FEW045 SCT100 16/M02 Q1011 =
SAZR 142100Z 34009KT CAVOK 16/10 Q1013 =
SAZS 142100Z 30018KT 5000 SHRASN SCT008 BKN017 BKN044 03/02 Q1011 =
SAZT 142100Z 27006KT CAVOK 13/02 Q1012 =
SAZY 142100Z 27020KT 9999 -RA FEW025 SCT100 05/02 Q1011 =
SUAA 142100Z 31008KT CAVOK 14/05 Q1015 =
SUCA 142100Z 30008KT CAVOK 15/07 Q1013 =
SUDU 142100Z 29006KT CAVOK 15/10 Q1016 =
SULS 142100Z 29006KT 9999 FEW030 SCT070 15/06 Q1015 =
SUMU 142100Z 29012KT CAVOK 15/05 Q1015 NOSIG =
SUSO 142000Z 02006KT CAVOK 21/09 Q1015 =

TAF

SABE 141700Z 1418/1518 25010KT CAVOK TX20/1518Z TN11/1510Z BECMG 1421/1423 35010KT 9999 SCT025 SCT100 BECMG 1505/1507 32005KT CAVOK BECMG 1513/1516 02010KT =
SAZB 141700Z 1418/1518 27020KT CAVOK TX17/1419Z TN08/1510Z =
SAZS 141700Z 1418/1518 29025KT 9000 -SHRA SCT030 BKN050 TX06/1518Z TN00/1510Z BECMG 1512/1517 32020KT CAVOK =
SANC 141700Z 1418/1518 VRB05KT CAVOK TX27/1518Z TN09/1510Z =
SAZY 141700Z 1418/1518 25020G35KT 9999 SCT025 TX09/1419Z TN00/1509Z BECMG 1420/1422 8000 RA BKN015 OVC030 BECMG 1510/1512 25015G25KT SCT030 =
SAVC 141700Z 1418/1518 29020G30KT 9999 FEW030 SCT090 TX11/1418Z TN05/1511Z BECMG 1509/1511 25020KT SCT030 BKN090 =
SACO 141700Z 1418/1518 16010KT 9999 FEW020 BECMG 0002 05005KT TX25/1518Z TN06/1510Z =
SARC 141700Z 1418/1518 05005KT CAVOK TX25/1518Z TN10/1510Z BECMG 1506/1508 5000 BR NSC PROB40 1508/1511 0800 FG BECMG 1512/1513 CAVOK =
SAWC 141700Z 1418/1518 27015KT 9999 SCT025 SCT090 TX05/1418Z TN02/1511Z BECMG 1503/1505 25025G40KT SCT020 BKN060 BECMG 1514/1516 27020KT SCT030 SCT090 =
SAVE 141700Z 1418/1518 29020G30KT 9999 SCT030 BKN090 TX07/1418Z TN01/1511Z BECMG 1500/1502 SHSNRA BKN020 BKN050 BECMG 1510/1512 30018KT NSW SCT030 SCT090 =
SAEZ 141700Z 1418/1518 27015KT CAVOK TX19/1418Z TN06/1509Z BECMG 1420/1423 32007KT 9999 SCT030 FEW050 BECMG 1506/1509 VRB03KT 5000 BR BECMG 1512/1515 30010KT CAVOK =
SARF 141700Z 1418/1518 05005KT CAVOK TX25/1518Z TN12/1510Z BECMG 1506/1508 5000 BR NSC PROB40 1508/1511 0800 FG BECMG 1512/1513 CAVOK =
SARI 141700Z 1418/1518 05005KT CAVOK TX23/1518Z TN10/1510Z BECMG 1506/1508 5000 BR NSC PROB40 1508/1511 0800 FG BECMG 1512/1513 CAVOK =
SASJ 141700Z 1418/1518 VRB04KT CAVOK TX26/1518Z TN09/1510Z =
SANL 141700Z 1418/1518 VRB02KT CAVOK TX26/1518Z TN09/1510Z =
SAZM 141700Z 1418/1518 27015KT CAVOK TX15/1418Z TN07/1510Z BECMG 1422/1501 32010KT 9999 BKN030 BECMG 1505/1508 32020KT 9999 BKN015 OVC040 =
SAME 141700Z 1418/1518 16005KT CAVOK TX23/1420Z TN04/1510Z =
SAZN 141700Z 1418/1518 25020G30KT CAVOK TX16/1518Z TN06/1510Z BECMG 1505/1507 29005KT BECMG 1512/1514 25015G25KT 9999 SCT035 BECMG 1516/1518 CAVOK =
SAAP 141700Z 1418/1518 32005KT CAVOK TX22/1518Z TN09/1510Z BECMG 1512/1514 36010KT =
SARP 141700Z 1418/1518 05005KT CAVOK TX24/1518Z TN11/1510Z BECMG 1506/1508 5000 BR NSC PROB40 1508/1511 0800 FG BECMG 1512/1513 CAVOK =
SARE 141700Z 1418/1518 05005KT CAVOK TX25/1518Z TN10/1510Z BECMG 1506/1508 5000 BR NSC PROB40 1508/1511 0800 FG BECMG 1512/1513 CAVOK =
SAWG 141700Z 1418/1518 27020G30KT 9999 FEW030 SCT090 TX07/1418Z TN01/1511Z BECMG 1506/1508 25025G40KT SCT030 BKN090 =
SAWE 141700Z 1418/1518 27020G30KT 9999 FEW030 SCT090 TX05/1418Z TN02/1511Z BECMG 1506/1508 25025G40KT SCT020 BKN090 =
SAAR 141700Z 1418/1518 VRB03KTKT CAVOK TX21/1518Z TN10/1510Z BECMG 1419/1421 9999 SCT025 SCT100 BECMG 1505/1507 05005KT 4000 BR NSC BECMG 1512/1514 36015KT CAVOK =
SASA 141700Z 1418/1518 VRB04KT CAVOK TX25/1518Z TN08/1510Z =
SANU 141700Z 1418/1518 02005KT CAVOK TX25/1420Z TN03/1510Z =
SAOU 141700Z 1418/1518 36010KT 9999 FEW030 TX23/1419Z TN06/1509Z =
SAMR 141700Z 1418/1518 07005KT CAVOK TX24/1420Z TN04/1510Z =
SAZR 141700Z 1418/1518 25005KT CAVOK TX19/1419Z TN06/1509Z BECMG 1504/1506 9999 SCT025 BKN100 =
SANE 141700Z 1418/1518 02010KT CAVOK TX27/1518Z TN08/1510Z =
SAAV 141700Z 1418/1518 34005KT CAVOK TX23/1518Z TN10/1510Z BECMG 1512/1514 36010KT =
SANR 141700Z 1418/1518 05005KT CAVOK TX26/1518Z TN06/1510Z =
SAVT 141700Z 1418/1518 27020KT 9999 BKN025 TX12/1418Z TN06/1511Z PROB40 TEMPO 1418/1422 FEW030TCU BECMG 1500/1502 29015KT SCT030 BECMG 1514/1516 24020G30KT =
SANT 141700Z 1418/1518 VRB04KT CAVOK TX26/1518Z TN10/1510Z =
SAWH 141700Z 1418/1518 25020KT 9999 SHRASN BKN020 BKN060 TX03/1418Z TN00/1511Z BECMG 1503/1505 23025G40KT PROB40 TEMPO 1509/1513 3000 SNRA BKN010 OVC030 =
SAVV 141700Z 1418/1518 27020KT 9999 SCT030 SCT090 TX16/1418Z TN09/1511Z BECMG 1420/1422 29015KT BKN025 BKN060 PROB40 TEMPO 1420/1500 FEW030TCU =
SUCA 131730Z 1318/1418Z 19010KT 9999 FEW020 SCT070 BKN200 TX17/1418Z TN06/1410Z BECMG 1402/1404 28010KT =
SUDU 061730Z 0618/0718 01010KT CAVOK TX22/0718Z TN12/0710Z BECMG 0620/0622 07005KT 9999 FEW026 SCT070 PROB30 TEMPO 0706/0711 3000 BR BKN010 BKN200 =
SULS 131730Z 1318/1418Z 19010KT 9999 FEW020 SCT070 BKN200 TX17/1418Z TN06/1410Z BECMG 1402/1404 28010KT =
SUAA 131730Z 1318/1418Z 19010KT 9999 FEW020 SCT070 BKN200 TX17/1418Z TN06/1410Z BECMG 1402/1404 28010KT =